Track Курганова Милана

Time Latitude Longitude Accuracy (66% radius in meters) Altitude (meters) Speed (km/hour) Bearing (degrees) Battery (%) GPS flag
07:14:42 55.092915 60.337877 0 0 0 0 1 delete
07:14:40 55.092892 60.337940 0 0 0 0 1 delete
07:14:38 55.092871 60.338000 0 0 0 0 1 delete
07:14:36 55.092858 60.338073 0 0 0 0 1 delete
07:14:34 55.092838 60.338152 0 0 0 0 1 delete
07:14:33 55.092825 60.338199 0 0 0 0 1 delete
07:14:31 55.092802 60.338254 0 0 0 0 1 delete
07:14:28 55.092786 60.338295 0 0 0 0 1 delete
07:14:20 55.092757 60.338287 0 0 0 0 1 delete
07:14:16 55.092731 60.338263 0 0 0 0 1 delete
07:14:13 55.092717 60.338214 0 0 0 0 1 delete
07:14:09 55.092690 60.338182 0 0 0 0 1 delete
07:13:58 55.092703 60.338112 0 0 0 0 1 delete
07:13:50 55.092741 60.338063 0 0 0 0 1 delete
07:13:43 55.092761 60.337983 0 0 0 0 1 delete
07:13:39 55.092773 60.337921 0 0 0 0 1 delete
07:13:36 55.092790 60.337834 0 0 0 0 1 delete
07:13:34 55.092816 60.337772 0 0 0 0 1 delete
07:13:32 55.092839 60.337738 0 0 0 0 1 delete
07:13:30 55.092860 60.337682 0 0 0 0 1 delete
07:13:28 55.092881 60.337639 0 0 0 0 1 delete
07:13:26 55.092911 60.337601 0 0 0 0 1 delete
07:13:24 55.092930 60.337561 0 0 0 0 1 delete
07:13:22 55.092949 60.337501 0 0 0 0 1 delete
07:13:21 55.092967 60.337455 0 0 0 0 1 delete
07:13:20 55.092985 60.337417 0 0 0 0 1 delete
07:13:19 55.093003 60.337379 0 0 0 0 1 delete
07:13:18 55.093021 60.337344 0 0 0 0 1 delete
07:13:16 55.093057 60.337292 0 0 0 0 1 delete
07:13:15 55.093077 60.337259 0 0 0 0 1 delete
07:13:14 55.093097 60.337220 0 0 0 0 1 delete
07:13:13 55.093116 60.337176 0 0 0 0 1 delete
07:13:12 55.093137 60.337135 0 0 0 0 1 delete
07:13:11 55.093158 60.337096 0 0 0 0 1 delete
07:13:09 55.093199 60.337035 0 0 0 0 1 delete
07:13:07 55.093235 60.336960 0 0 0 0 1 delete
07:13:05 55.093265 60.336891 0 0 0 0 1 delete
07:13:03 55.093298 60.336818 0 0 0 0 1 delete
07:13:01 55.093326 60.336753 0 0 0 0 1 delete
07:12:59 55.093352 60.336689 0 0 0 0 1 delete
07:12:58 55.093366 60.336644 0 0 0 0 1 delete
07:12:57 55.093380 60.336591 0 0 0 0 1 delete
07:12:56 55.093395 60.336537 0 0 0 0 1 delete
07:12:55 55.093408 60.336483 0 0 0 0 1 delete
07:12:54 55.093427 60.336436 0 0 0 0 1 delete
07:12:53 55.093445 60.336396 0 0 0 0 1 delete
07:12:51 55.093476 60.336333 0 0 0 0 1 delete
07:12:50 55.093492 60.336294 0 0 0 0 1 delete
07:12:49 55.093507 60.336249 0 0 0 0 1 delete
07:12:47 55.093524 60.336163 0 0 0 0 1 delete